Time;durP1;ratioP1;P1;durP2;ratioP2;P2;SDS_P1;SDS_P2;PMS_P1;PMS_P2;Temp;Humidity;BMP_temperature;BMP_pressure;BME280_temperature;BME280_humidity;BME280_pressure;Samples;Min_cycle;Max_cycle;Signal;HPM_P1;HPM_P2
2024/01/15 00:01:04;;;;;;;26.13;11.57;;;;;;;-2.33;79.31;94463.91;5031242;28;20183;-77
2024/01/15 00:03:29;;;;;;;25.33;10.70;;;;;;;-2.48;79.98;94475.03;5016660;28;20237;-77
2024/01/15 00:05:55;;;;;;;23.83;10.60;;;;;;;-2.36;79.36;94458.22;5015008;28;20187;-77
2024/01/15 00:08:20;;;;;;;26.53;11.23;;;;;;;-2.47;79.83;94458.88;5028487;28;20187;-77
2024/01/15 00:10:45;;;;;;;28.57;11.20;;;;;;;-2.40;79.41;94454.22;5030271;28;20253;-77
2024/01/15 00:13:10;;;;;;;28.07;10.97;;;;;;;-2.39;79.52;94455.84;5016274;28;20179;-77
2024/01/15 00:15:36;;;;;;;28.20;11.57;;;;;;;-2.41;80.15;94444.97;5031899;28;20183;-77
2024/01/15 00:18:01;;;;;;;29.20;12.13;;;;;;;-2.33;79.97;94450.38;4999555;28;20214;-77
2024/01/15 00:20:26;;;;;;;30.97;12.20;;;;;;;-2.28;79.52;94449.19;5031880;28;20203;-77
2024/01/15 00:22:52;;;;;;;27.43;11.87;;;;;;;-2.25;79.51;94453.25;5015027;28;20204;-77
2024/01/15 00:25:17;;;;;;;28.23;12.03;;;;;;;-2.29;79.78;94452.66;5032258;28;20283;-77
2024/01/15 00:27:43;;;;;;;28.63;11.20;;;;;;;-2.24;79.23;94452.34;5016816;28;20298;-77
2024/01/15 00:30:09;;;;;;;28.57;11.63;;;;;;;-2.44;79.99;94448.53;5031460;28;20203;-76
2024/01/15 00:32:34;;;;;;;27.97;12.70;;;;;;;-2.28;79.83;94453.47;5016438;28;20177;-76
2024/01/15 00:34:59;;;;;;;28.13;11.80;;;;;;;-2.33;79.85;94455.47;5011214;28;20222;-77
2024/01/15 00:37:25;;;;;;;29.57;12.73;;;;;;;-2.38;79.98;94445.59;5016128;28;20179;-77
2024/01/15 00:39:50;;;;;;;31.87;11.90;;;;;;;-2.42;80.25;94433.16;4998278;28;20216;-77
2024/01/15 00:42:15;;;;;;;26.93;12.30;;;;;;;-2.25;79.80;94442.28;5031510;28;20188;-77
2024/01/15 00:44:42;;;;;;;32.43;13.33;;;;;;;-2.28;79.79;94438.19;5044646;28;20183;-77
2024/01/15 00:47:07;;;;;;;34.37;12.93;;;;;;;-2.45;80.44;94436.72;4998535;28;20204;-77
2024/01/15 00:49:33;;;;;;;29.63;11.70;;;;;;;-2.35;80.25;94445.41;4997525;28;20211;-77
2024/01/15 00:51:58;;;;;;;27.73;12.07;;;;;;;-2.30;80.23;94445.09;5017580;28;20215;-78
2024/01/15 00:54:23;;;;;;;25.97;10.97;;;;;;;-2.32;80.07;94446.91;5032695;28;20666;-78
2024/01/15 00:56:49;;;;;;;28.70;11.53;;;;;;;-2.46;80.67;94449.53;5019410;28;20235;-78
2024/01/15 00:59:17;;;;;;;28.97;12.70;;;;;;;-2.40;80.81;94446.59;5001769;28;20215;-77
2024/01/15 01:01:43;;;;;;;28.73;12.70;;;;;;;-2.25;80.02;94445.63;5018933;28;20190;-78
2024/01/15 01:04:11;;;;;;;28.03;11.00;;;;;;;-2.22;80.45;94447.16;5010975;28;20183;-77
2024/01/15 01:06:37;;;;;;;29.70;12.27;;;;;;;-2.16;79.97;94444.22;5026387;28;20175;-76
2024/01/15 01:09:02;;;;;;;27.10;11.60;;;;;;;-2.08;79.73;94449.63;4993398;28;20616;-77
2024/01/15 01:11:27;;;;;;;28.53;11.73;;;;;;;-2.20;79.86;94447.91;5026627;28;20595;-77
2024/01/15 01:13:53;;;;;;;26.17;11.43;;;;;;;-2.37;80.97;94449.78;5011759;28;20208;-77
2024/01/15 01:16:18;;;;;;;29.67;12.30;;;;;;;-2.33;80.51;94443.56;5030374;28;20795;-77
2024/01/15 01:18:43;;;;;;;24.17;10.50;;;;;;;-2.21;79.85;94436.06;5030612;28;20235;-77
2024/01/15 01:21:08;;;;;;;32.17;11.33;;;;;;;-2.45;80.46;94436.72;5015937;28;20188;-77
2024/01/15 01:23:34;;;;;;;27.13;11.37;;;;;;;-2.37;80.67;94439.59;5016010;28;20179;-77
2024/01/15 01:25:59;;;;;;;26.93;11.50;;;;;;;-2.17;80.48;94433.25;5014364;28;20214;-77
2024/01/15 01:28:24;;;;;;;25.90;11.57;;;;;;;-2.23;80.47;94431.06;5038113;28;20616;-77
2024/01/15 01:30:50;;;;;;;29.87;12.77;;;;;;;-2.40;80.98;94426.25;5011074;28;20675;-77
2024/01/15 01:33:15;;;;;;;30.87;12.30;;;;;;;-2.39;81.49;94431.22;5015689;28;20194;-77
2024/01/15 01:35:41;;;;;;;30.27;12.23;;;;;;;-2.24;80.41;94423.56;5042754;28;20279;-77
2024/01/15 01:38:06;;;;;;;26.43;12.00;;;;;;;-2.12;79.80;94427.84;5012797;28;20203;-78
2024/01/15 01:40:31;;;;;;;24.73;12.13;;;;;;;-2.13;80.06;94431.31;5029985;28;20210;-78
2024/01/15 01:42:57;;;;;;;24.50;11.20;;;;;;;-2.37;80.63;94423.53;5014792;28;20653;-77
2024/01/15 01:45:37;;;;;;;27.30;11.87;;;;;;;-2.44;80.98;94417.19;5027849;28;20586;-78
2024/01/15 01:48:03;;;;;;;29.33;11.77;;;;;;;-2.32;80.72;94427.38;5007512;28;20184;-77
2024/01/15 01:50:30;;;;;;;29.13;12.33;;;;;;;-2.40;81.30;94421.97;5030549;28;20713;-78
2024/01/15 01:52:55;;;;;;;27.37;11.47;;;;;;;-2.32;80.82;94416.41;4997846;28;20672;-77
2024/01/15 01:55:21;;;;;;;27.37;10.87;;;;;;;-2.50;81.74;94426.00;5020373;28;20219;-77
2024/01/15 01:57:47;;;;;;;26.63;11.27;;;;;;;-2.37;80.93;94419.25;5016840;28;20239;-78
2024/01/15 02:00:13;;;;;;;24.13;10.63;;;;;;;-2.40;81.46;94421.16;5007351;28;20219;-78
2024/01/15 02:02:38;;;;;;;28.37;11.20;;;;;;;-2.32;80.93;94419.75;5014022;28;20273;-77
2024/01/15 02:05:05;;;;;;;32.50;11.13;;;;;;;-2.19;80.72;94419.00;5029990;28;20286;-77
2024/01/15 02:07:31;;;;;;;25.73;11.23;;;;;;;-2.33;81.35;94423.22;5030445;28;20187;-77
2024/01/15 02:09:57;;;;;;;28.77;11.27;;;;;;;-2.30;81.29;94422.19;4996437;28;20206;-77
2024/01/15 02:12:22;;;;;;;24.40;10.90;;;;;;;-2.33;81.40;94415.59;5013888;28;20198;-77
2024/01/15 02:14:47;;;;;;;25.83;11.70;;;;;;;-2.15;80.70;94403.44;5014057;28;20683;-77
2024/01/15 02:17:13;;;;;;;23.20;11.13;;;;;;;-2.17;80.30;94409.53;5033114;28;20212;-77
2024/01/15 02:19:40;;;;;;;23.93;11.87;;;;;;;-2.38;81.26;94399.84;5017195;28;20203;-77
2024/01/15 02:22:06;;;;;;;26.40;10.37;;;;;;;-2.30;81.25;94400.16;5017390;28;20562;-77
2024/01/15 02:24:31;;;;;;;25.27;10.50;;;;;;;-2.52;82.54;94394.00;5026010;28;20188;-77
2024/01/15 02:26:56;;;;;;;24.23;10.20;;;;;;;-2.24;81.06;94398.13;5017407;28;20186;-77
2024/01/15 02:29:22;;;;;;;27.07;10.43;;;;;;;-2.31;81.08;94397.69;5033825;28;20203;-78
2024/01/15 02:31:47;;;;;;;24.47;11.30;;;;;;;-2.32;81.68;94398.59;5034027;28;20545;-77
2024/01/15 02:34:13;;;;;;;19.20;10.07;;;;;;;-2.28;81.09;94402.59;5034151;28;20186;-77
2024/01/15 02:36:38;;;;;;;19.87;8.87;;;;;;;-2.23;80.87;94397.19;5033548;28;20187;-78
2024/01/15 02:39:03;;;;;;;20.53;8.93;;;;;;;-2.13;80.79;94404.13;5017912;28;20219;-77
2024/01/15 02:41:28;;;;;;;20.03;10.07;;;;;;;-2.14;80.68;94394.06;5023880;28;20285;-78
2024/01/15 02:43:54;;;;;;;23.37;9.53;;;;;;;-2.16;80.30;94404.34;5022002;28;20187;-77
2024/01/15 02:46:19;;;;;;;18.27;8.50;;;;;;;-2.12;79.87;94392.22;5038702;28;20197;-78
2024/01/15 02:48:45;;;;;;;21.23;9.00;;;;;;;-2.07;79.88;94396.13;5037756;28;20286;-78
2024/01/15 02:51:10;;;;;;;20.07;8.60;;;;;;;-2.11;80.06;94399.78;5005009;28;20710;-77
2024/01/15 02:53:36;;;;;;;20.93;8.80;;;;;;;-2.09;80.29;94402.22;5017081;28;20183;-77
2024/01/15 02:56:01;;;;;;;19.47;9.30;;;;;;;-1.92;79.64;94396.03;5046069;28;20656;-78
2024/01/15 02:58:27;;;;;;;23.57;8.57;;;;;;;-1.97;79.74;94400.59;5033337;28;20310;-77
2024/01/15 03:00:52;;;;;;;21.30;8.77;;;;;;;-2.05;79.85;94398.56;5000494;28;20604;-77
2024/01/15 03:03:17;;;;;;;16.63;7.67;;;;;;;-2.02;80.24;94399.19;5033278;28;20194;-78
2024/01/15 03:05:43;;;;;;;21.33;8.90;;;;;;;-2.05;80.31;94398.56;5032837;28;20784;-77
2024/01/15 03:08:08;;;;;;;17.20;8.67;;;;;;;-1.98;80.13;94397.25;5016834;28;20256;-77
2024/01/15 03:10:33;;;;;;;18.73;8.60;;;;;;;-2.06;80.35;94405.38;5032442;28;20283;-77
2024/01/15 03:12:59;;;;;;;16.27;7.67;;;;;;;-2.00;80.38;94409.25;5023874;28;20257;-77
2024/01/15 03:15:24;;;;;;;18.83;7.93;;;;;;;-1.93;79.67;94395.22;5021292;28;20203;-77
2024/01/15 03:17:49;;;;;;;16.63;7.87;;;;;;;-2.02;80.12;94398.38;5016301;28;20249;-78
2024/01/15 03:20:15;;;;;;;16.93;8.60;;;;;;;-2.02;80.23;94391.56;5015688;28;20221;-77
2024/01/15 03:22:40;;;;;;;18.47;7.47;;;;;;;-2.05;80.49;94396.00;5034951;28;20270;-77
2024/01/15 03:25:06;;;;;;;16.20;7.50;;;;;;;-2.10;80.80;94391.25;5017586;28;20191;-77
2024/01/15 03:27:31;;;;;;;18.47;8.30;;;;;;;-1.96;80.72;94392.06;5031816;28;20188;-77
2024/01/15 03:29:57;;;;;;;18.43;8.17;;;;;;;-2.07;81.82;94388.47;5017167;28;20206;-77
2024/01/15 03:32:22;;;;;;;16.53;8.20;;;;;;;-1.92;81.12;94383.31;5032108;28;20193;-77
2024/01/15 03:34:48;;;;;;;14.47;7.23;;;;;;;-1.96;81.22;94392.06;5031742;28;20649;-78
2024/01/15 03:37:13;;;;;;;16.80;7.40;;;;;;;-1.83;80.83;94382.72;5032042;28;20187;-77
2024/01/15 03:39:39;;;;;;;16.70;7.27;;;;;;;-1.88;80.23;94379.63;5030922;28;20591;-77
2024/01/15 03:42:04;;;;;;;14.60;7.53;;;;;;;-1.97;81.04;94367.53;5036758;28;20194;-78
2024/01/15 03:44:29;;;;;;;15.23;7.20;;;;;;;-2.13;81.42;94375.34;5036959;28;20187;-78
2024/01/15 03:46:55;;;;;;;14.93;7.03;;;;;;;-1.96;80.84;94377.59;5036663;28;20184;-78
2024/01/15 03:49:20;;;;;;;15.03;7.70;;;;;;;-1.94;80.81;94382.56;5019300;28;20233;-78
2024/01/15 03:51:46;;;;;;;13.70;7.33;;;;;;;-1.87;79.87;94366.81;5038205;28;20192;-77
2024/01/15 03:54:11;;;;;;;16.63;8.63;;;;;;;-1.84;79.81;94376.00;5019168;28;20211;-76
2024/01/15 03:56:36;;;;;;;14.97;7.90;;;;;;;-1.65;79.78;94371.31;5026100;28;20187;-78
2024/01/15 03:59:01;;;;;;;14.30;7.50;;;;;;;-1.82;79.97;94367.34;4998820;28;20589;-76
2024/01/15 04:01:27;;;;;;;17.60;7.37;;;;;;;-1.72;79.71;94364.97;5028647;28;20593;-76
2024/01/15 04:03:52;;;;;;;15.57;7.43;;;;;;;-1.65;79.46;94367.94;5015510;28;20187;-77
2024/01/15 04:06:17;;;;;;;13.73;7.13;;;;;;;-1.76;78.70;94366.13;5012884;28;20599;-77
2024/01/15 04:08:43;;;;;;;12.83;6.67;;;;;;;-2.00;80.10;94366.81;5031308;28;20217;-77
2024/01/15 04:11:08;;;;;;;11.63;6.10;;;;;;;-1.71;79.02;94362.34;5030880;28;20657;-77
2024/01/15 04:13:33;;;;;;;15.33;7.13;;;;;;;-1.77;79.36;94354.28;5031468;28;20180;-77
2024/01/15 04:16:00;;;;;;;13.07;6.33;;;;;;;-1.69;78.71;94344.41;5016213;28;20197;-77
2024/01/15 04:18:25;;;;;;;11.80;5.97;;;;;;;-1.77;78.67;94359.38;5007042;28;20306;-77
2024/01/15 04:20:51;;;;;;;13.73;7.07;;;;;;;-1.62;77.86;94344.81;4997890;28;20279;-77
2024/01/15 04:23:16;;;;;;;9.50;5.70;;;;;;;-1.74;78.45;94344.72;5014299;28;20185;-77
2024/01/15 04:25:42;;;;;;;12.47;6.50;;;;;;;-1.55;77.93;94343.50;5030830;28;20183;-77
2024/01/15 04:28:08;;;;;;;13.70;6.97;;;;;;;-1.69;78.27;94349.50;5016275;28;20181;-78
2024/01/15 04:30:34;;;;;;;12.60;7.13;;;;;;;-1.58;77.45;94339.44;5015873;28;20172;-78
2024/01/15 04:32:59;;;;;;;11.40;5.63;;;;;;;-1.78;78.84;94332.31;5031421;28;20278;-77
2024/01/15 04:35:24;;;;;;;15.37;6.70;;;;;;;-1.69;78.43;94343.59;5030937;28;20189;-77
2024/01/15 04:37:50;;;;;;;11.37;5.90;;;;;;;-1.85;79.10;94346.38;5031958;28;20186;-78
2024/01/15 04:40:15;;;;;;;9.83;5.13;;;;;;;-1.86;79.11;94344.72;5017913;28;20779;-78
2024/01/15 04:42:40;;;;;;;10.07;5.43;;;;;;;-1.78;78.59;94332.31;5018879;28;20266;-78
2024/01/15 04:45:06;;;;;;;11.60;6.00;;;;;;;-1.86;79.06;94345.53;5015845;28;20179;-76
2024/01/15 04:47:31;;;;;;;9.10;5.43;;;;;;;-1.79;78.62;94328.94;5029346;28;20566;-78
2024/01/15 04:49:56;;;;;;;10.37;5.23;;;;;;;-1.75;78.04;94332.94;4996234;28;20706;-77
2024/01/15 04:52:22;;;;;;;14.63;5.57;;;;;;;-1.75;78.30;94335.47;5020971;28;20257;-77
2024/01/15 04:54:47;;;;;;;10.43;5.93;;;;;;;-2.00;79.36;94340.56;5012862;28;20183;-77
2024/01/15 04:57:13;;;;;;;14.27;6.97;;;;;;;-1.82;78.32;94333.44;5018328;28;20186;-78
2024/01/15 04:59:38;;;;;;;11.77;6.37;;;;;;;-1.82;78.46;94329.16;5014423;28;20267;-77
2024/01/15 05:02:03;;;;;;;14.47;6.83;;;;;;;-1.64;77.36;94321.19;5013734;28;20238;-78
2024/01/15 05:04:28;;;;;;;14.57;7.20;;;;;;;-1.80;78.07;94322.22;5021553;28;20617;-77
2024/01/15 05:06:55;;;;;;;10.63;5.60;;;;;;;-1.91;78.40;94323.88;5013415;28;20700;-78
2024/01/15 05:09:20;;;;;;;13.33;6.80;;;;;;;-1.81;77.68;94327.44;5029754;28;20309;-78
2024/01/15 05:11:45;;;;;;;10.03;6.00;;;;;;;-1.89;78.45;94312.66;5031653;28;20230;-78
2024/01/15 05:14:11;;;;;;;8.77;5.70;;;;;;;-1.80;78.00;94298.50;5023393;28;20214;-78
2024/01/15 05:16:40;;;;;;;7.77;5.40;;;;;;;-1.84;78.18;94292.84;5019557;28;20261;-78
2024/01/15 05:19:07;;;;;;;9.63;4.73;;;;;;;-1.79;78.15;94297.59;5016190;28;20200;-78
2024/01/15 05:21:32;;;;;;;8.87;5.97;;;;;;;-1.65;77.68;94294.94;5034762;28;20194;-80
2024/01/15 05:23:58;;;;;;;9.67;5.33;;;;;;;-1.55;76.93;94306.13;4995530;28;20633;-77
2024/01/15 05:26:23;;;;;;;9.33;5.43;;;;;;;-1.86;77.56;94296.38;5010838;28;20696;-76
2024/01/15 05:28:48;;;;;;;10.50;5.20;;;;;;;-1.75;77.49;94296.47;5011438;28;20235;-77
2024/01/15 05:31:14;;;;;;;12.27;5.50;;;;;;;-1.58;76.57;94306.34;5012505;28;20211;-79
2024/01/15 05:33:40;;;;;;;9.70;5.03;;;;;;;-1.69;76.77;94296.03;5012473;28;20649;-77
2024/01/15 05:36:05;;;;;;;10.40;5.47;;;;;;;-1.45;76.09;94296.91;5028613;28;20213;-77
2024/01/15 05:38:31;;;;;;;8.43;5.10;;;;;;;-1.46;75.98;94300.38;5036788;28;20234;-78
2024/01/15 05:40:56;;;;;;;9.57;4.40;;;;;;;-1.50;76.38;94306.63;5016329;28;20290;-78
2024/01/15 05:43:22;;;;;;;10.43;4.93;;;;;;;-1.50;76.25;94298.97;5031269;28;20195;-78
2024/01/15 05:45:47;;;;;;;7.07;4.63;;;;;;;-1.34;75.26;94301.25;5046845;28;20221;-78
2024/01/15 05:48:12;;;;;;;12.03;4.80;;;;;;;-1.37;75.66;94293.84;5018337;28;20198;-78
2024/01/15 05:50:38;;;;;;;7.37;4.30;;;;;;;-1.73;76.82;94298.00;5033283;28;20276;-77
2024/01/15 05:53:03;;;;;;;6.57;3.60;;;;;;;-1.57;76.23;94286.78;5017712;28;20202;-78
2024/01/15 05:55:29;;;;;;;6.23;4.27;;;;;;;-1.42;75.26;94285.69;5033473;28;20685;-78
2024/01/15 05:57:54;;;;;;;7.37;4.30;;;;;;;-1.59;75.89;94284.34;5033017;28;20197;-78
2024/01/15 06:00:19;;;;;;;7.37;4.20;;;;;;;-1.72;75.76;94281.00;5014248;28;20223;-76
2024/01/15 06:02:45;;;;;;;5.20;3.83;;;;;;;-1.71;75.75;94264.81;5011586;28;20197;-76
2024/01/15 06:05:10;;;;;;;9.60;5.57;;;;;;;-1.63;75.51;94259.19;5025645;28;20187;-76
2024/01/15 06:07:36;;;;;;;7.63;4.10;;;;;;;-1.63;74.80;94260.00;5025728;28;20226;-77
2024/01/15 06:10:01;;;;;;;7.50;3.70;;;;;;;-1.63;74.47;94257.44;5010626;28;20226;-77
2024/01/15 06:12:28;;;;;;;6.87;3.80;;;;;;;-1.62;73.66;94258.25;5010525;28;20187;-77
2024/01/15 06:14:53;;;;;;;6.43;3.80;;;;;;;-1.51;73.49;94258.31;5019278;28;20659;-77
2024/01/15 06:17:18;;;;;;;7.60;3.80;;;;;;;-1.69;72.91;94260.41;5010589;28;20202;-76
2024/01/15 06:19:44;;;;;;;6.03;3.33;;;;;;;-1.59;72.91;94263.13;5027145;28;20210;-76
2024/01/15 06:22:09;;;;;;;6.40;3.30;;;;;;;-1.60;72.13;94257.22;5028399;28;20297;-76
2024/01/15 06:24:34;;;;;;;4.30;3.10;;;;;;;-1.38;71.85;94271.03;5028475;28;20215;-77
2024/01/15 06:27:00;;;;;;;6.33;3.63;;;;;;;-1.44;72.04;94267.97;5013268;28;20639;-77
2024/01/15 06:29:27;;;;;;;6.70;3.50;;;;;;;-1.61;72.41;94270.06;5027475;28;20673;-78
2024/01/15 06:31:52;;;;;;;5.00;2.70;;;;;;;-1.66;72.73;94272.94;4999515;28;20185;-77
2024/01/15 06:34:17;;;;;;;6.97;3.97;;;;;;;-1.58;72.02;94269.88;5018473;28;20207;-77
2024/01/15 06:36:43;;;;;;;8.60;3.10;;;;;;;-1.74;72.40;94273.47;5011751;28;20196;-77
2024/01/15 06:39:09;;;;;;;7.20;4.27;;;;;;;-1.47;71.33;94263.13;5018877;28;20226;-77
2024/01/15 06:41:37;;;;;;;4.80;3.17;;;;;;;-1.56;71.36;94261.22;5011625;28;20186;-77
2024/01/15 06:44:03;;;;;;;5.90;3.83;;;;;;;-1.55;71.03;94264.56;5010366;28;20312;-77
2024/01/15 06:46:28;;;;;;;12.93;5.97;;;;;;;-1.33;70.79;94266.41;5009586;28;20664;-77
2024/01/15 06:48:53;;;;;;;7.47;4.00;;;;;;;-1.47;70.83;94259.75;5010881;28;20296;-77
2024/01/15 06:51:19;;;;;;;7.70;3.77;;;;;;;-1.44;70.80;94251.91;5021168;28;20592;-77
2024/01/15 06:53:44;;;;;;;6.43;3.43;;;;;;;-1.48;70.30;94248.75;5028802;28;20206;-77
2024/01/15 06:56:09;;;;;;;7.37;3.53;;;;;;;-1.37;70.21;94249.75;5029167;28;20191;-78
2024/01/15 06:58:35;;;;;;;6.07;2.70;;;;;;;-1.35;69.56;94263.16;5030502;28;20683;-78
2024/01/15 07:01:00;;;;;;;5.00;3.50;;;;;;;-1.14;68.75;94269.31;5013970;28;20211;-78
2024/01/15 07:03:25;;;;;;;5.07;3.33;;;;;;;-1.05;68.33;94275.50;5015346;28;20201;-78
2024/01/15 07:05:51;;;;;;;4.23;2.77;;;;;;;-1.05;67.98;94267.84;5015719;28;20195;-78
2024/01/15 07:08:16;;;;;;;6.27;4.23;;;;;;;-0.98;67.90;94267.28;4993099;28;20211;-78
2024/01/15 07:10:42;;;;;;;5.67;3.40;;;;;;;-1.26;68.47;94272.72;5024749;28;20189;-79
2024/01/15 07:13:07;;;;;;;6.30;3.20;;;;;;;-1.10;68.21;94269.91;5010291;28;20221;-79
2024/01/15 07:15:32;;;;;;;5.23;2.90;;;;;;;-1.05;67.87;94289.06;5017786;28;20190;-79
2024/01/15 07:17:58;;;;;;;4.47;2.90;;;;;;;-1.26;68.12;94281.16;5035752;28;20257;-78
2024/01/15 07:20:23;;;;;;;5.50;2.90;;;;;;;-1.41;68.55;94282.25;5032856;28;20580;-78
2024/01/15 07:22:48;;;;;;;3.97;2.90;;;;;;;-0.94;67.75;94278.91;5020829;28;20653;-79
2024/01/15 07:25:15;;;;;;;5.93;3.10;;;;;;;-0.97;67.64;94291.03;5015890;28;20298;-79
2024/01/15 07:27:44;;;;;;;6.10;2.93;;;;;;;-1.01;67.66;94287.91;5033757;28;20187;-79
2024/01/15 07:30:10;;;;;;;5.13;3.53;;;;;;;-1.04;67.73;94289.88;5011676;28;20203;-79
2024/01/15 07:32:35;;;;;;;4.77;3.30;;;;;;;-1.02;67.69;94288.00;5013780;28;20294;-78
2024/01/15 07:35:01;;;;;;;7.03;3.30;;;;;;;-1.09;68.00;94297.81;5016151;28;20219;-78
2024/01/15 07:37:26;;;;;;;4.20;2.77;;;;;;;-1.27;67.77;94278.72;5016825;28;20195;-77
2024/01/15 07:39:51;;;;;;;6.47;2.87;;;;;;;-0.99;67.25;94292.88;4998218;28;20349;-78
2024/01/15 07:42:17;;;;;;;5.87;2.40;;;;;;;-1.03;67.12;94286.38;5025105;28;20218;-79
2024/01/15 07:44:42;;;;;;;7.17;2.70;;;;;;;-0.98;66.99;94287.66;5006337;28;20188;-78
2024/01/15 07:47:09;;;;;;;6.70;2.60;;;;;;;-1.07;67.01;94300.25;5032464;28;20683;-79
2024/01/15 07:49:34;;;;;;;4.37;2.70;;;;;;;-1.08;66.79;94284.16;5014006;28;20286;-78
2024/01/15 07:52:00;;;;;;;7.30;2.83;;;;;;;-1.01;66.23;94290.44;5023807;28;20611;-78
2024/01/15 07:54:25;;;;;;;4.63;2.90;;;;;;;-0.79;65.98;94288.94;5013828;28;20303;-78
2024/01/15 07:56:57;;;;;;;4.53;2.97;;;;;;;-0.82;65.50;94304.44;5011309;28;20187;-78
2024/01/15 07:59:23;;;;;;;6.77;3.23;;;;;;;-0.95;65.96;94299.41;5026496;28;20228;-79
2024/01/15 08:01:49;;;;;;;9.90;4.40;;;;;;;-0.69;64.84;94295.81;5001123;28;20193;-78
2024/01/15 08:04:14;;;;;;;5.50;3.20;;;;;;;-0.71;65.10;94297.63;5024709;28;20198;-78
2024/01/15 08:06:40;;;;;;;6.93;4.40;;;;;;;-0.65;64.38;94298.94;5023959;28;20217;-78
2024/01/15 08:09:05;;;;;;;8.57;3.93;;;;;;;-0.80;64.75;94302.56;5000099;28;20218;-79
2024/01/15 08:11:31;;;;;;;4.60;2.77;;;;;;;-0.66;64.47;94295.56;5017248;28;20195;-79
2024/01/15 08:13:56;;;;;;;3.10;2.30;;;;;;;-0.71;64.88;94291.72;5016327;28;20194;-78
2024/01/15 08:16:22;;;;;;;4.60;2.57;;;;;;;-0.56;64.40;94293.16;5033400;28;20540;-79
2024/01/15 08:18:47;;;;;;;5.83;2.70;;;;;;;-0.62;64.48;94293.59;5031428;28;20205;-79
2024/01/15 08:21:13;;;;;;;5.83;2.70;;;;;;;-0.76;65.34;94293.81;5031658;28;20229;-79
2024/01/15 08:23:38;;;;;;;4.73;2.70;;;;;;;-0.71;65.46;94287.44;5031392;28;20657;-81
2024/01/15 08:26:04;;;;;;;4.77;2.90;;;;;;;-0.77;65.88;94284.53;5014394;28;20245;-84
2024/01/15 08:28:29;;;;;;;5.27;3.03;;;;;;;-0.92;65.94;94294.88;5037386;28;20558;-81
2024/01/15 08:30:55;;;;;;;7.47;4.63;;;;;;;-0.57;66.02;94291.56;5011456;28;20202;-83
2024/01/15 08:33:20;;;;;;;5.20;3.40;;;;;;;-0.95;66.78;94287.47;5020835;28;20191;-79
2024/01/15 08:35:45;;;;;;;5.93;3.40;;;;;;;-0.93;67.10;94295.81;5028530;28;20198;-78
2024/01/15 08:38:11;;;;;;;6.70;3.40;;;;;;;-0.78;66.69;94290.56;5033386;28;20222;-78
2024/01/15 08:40:36;;;;;;;4.17;3.00;;;;;;;-0.89;67.82;94289.56;5018848;28;20264;-79
2024/01/15 08:43:02;;;;;;;9.47;4.10;;;;;;;-0.68;67.81;94291.53;5026665;28;20202;-78
2024/01/15 08:45:27;;;;;;;6.43;3.03;;;;;;;-1.02;68.70;94283.72;5019359;28;20201;-78
2024/01/15 08:47:52;;;;;;;6.27;3.13;;;;;;;-0.69;68.97;94283.06;5018309;28;20269;-79
2024/01/15 08:50:18;;;;;;;6.30;4.30;;;;;;;-0.58;68.56;94283.09;5041611;28;20217;-80
2024/01/15 08:52:43;;;;;;;6.43;3.97;;;;;;;-0.71;69.10;94286.63;5017978;28;20207;-77
2024/01/15 08:55:08;;;;;;;5.47;3.47;;;;;;;-0.48;68.67;94295.16;5024909;28;20263;-78
2024/01/15 08:57:34;;;;;;;6.43;3.83;;;;;;;-0.79;69.24;94288.94;5033304;28;20183;-78
2024/01/15 09:00:00;;;;;;;5.90;3.80;;;;;;;-0.57;69.25;94283.91;5016991;28;20299;-79
2024/01/15 09:02:25;;;;;;;7.23;5.20;;;;;;;-0.32;68.22;94285.47;5000879;28;20213;-78
2024/01/15 09:04:51;;;;;;;6.03;3.33;;;;;;;-0.67;69.10;94288.03;5001926;28;20191;-78
2024/01/15 09:07:17;;;;;;;6.10;3.87;;;;;;;-0.42;68.95;94269.22;5034549;28;20183;-78
2024/01/15 09:09:42;;;;;;;9.37;4.47;;;;;;;-0.27;68.08;94273.19;5045125;28;20199;-79
2024/01/15 09:12:08;;;;;;;5.83;3.40;;;;;;;-0.21;68.06;94259.16;5035402;28;20627;-78
2024/01/15 09:14:34;;;;;;;5.63;3.37;;;;;;;-0.19;67.68;94267.50;5022780;28;20198;-78
2024/01/15 09:16:59;;;;;;;9.40;6.30;;;;;;;0.06;66.85;94269.03;5019127;28;20196;-78
2024/01/15 09:19:24;;;;;;;7.93;3.43;;;;;;;-0.31;68.07;94275.16;5001694;28;20226;-78
2024/01/15 09:21:50;;;;;;;9.33;4.07;;;;;;;0.01;67.30;94278.81;5017972;28;20198;-78
2024/01/15 09:24:15;;;;;;;6.80;3.97;;;;;;;0.08;66.93;94275.66;5026618;28;20640;-77
2024/01/15 09:26:40;;;;;;;6.03;3.67;;;;;;;-0.20;67.19;94276.91;5025513;28;20701;-78
2024/01/15 09:29:06;;;;;;;6.47;3.97;;;;;;;-0.07;67.30;94269.97;5032305;28;20641;-77
2024/01/15 09:31:31;;;;;;;7.07;4.77;;;;;;;0.14;66.64;94272.66;5016854;28;20178;-78
2024/01/15 09:33:58;;;;;;;7.07;3.83;;;;;;;0.24;66.27;94273.56;5017607;28;20189;-78
2024/01/15 09:36:24;;;;;;;5.90;3.53;;;;;;;0.00;66.19;94270.34;5045650;28;20179;-78
2024/01/15 09:38:49;;;;;;;7.47;3.80;;;;;;;0.19;66.66;94272.31;5015701;28;20257;-78
2024/01/15 09:41:15;;;;;;;6.27;3.20;;;;;;;0.23;66.40;94268.59;5033867;28;20692;-77
2024/01/15 09:43:40;;;;;;;5.77;3.50;;;;;;;0.38;65.87;94269.16;5030780;28;20202;-77
2024/01/15 09:46:06;;;;;;;7.20;4.13;;;;;;;0.25;66.36;94269.28;5008094;28;20187;-77
2024/01/15 09:48:34;;;;;;;7.20;3.97;;;;;;;-0.12;66.91;94261.03;5042463;28;20218;-78
2024/01/15 09:51:01;;;;;;;6.17;4.20;;;;;;;0.01;67.24;94263.50;5014096;28;20178;-78
2024/01/15 09:53:26;;;;;;;7.00;3.87;;;;;;;0.01;67.40;94264.31;5011739;28;20230;-77
2024/01/15 09:55:52;;;;;;;6.83;4.30;;;;;;;0.01;67.25;94253.28;5011553;28;20195;-78
2024/01/15 09:58:18;;;;;;;8.30;4.47;;;;;;;0.27;66.50;94260.59;5029542;28;20202;-77
2024/01/15 10:00:44;;;;;;;12.90;6.17;;;;;;;0.22;66.94;94252.44;5031692;28;20211;-77
2024/01/15 10:03:11;;;;;;;7.97;5.10;;;;;;;0.12;67.37;94254.09;5029075;28;20195;-77
2024/01/15 10:05:37;;;;;;;6.53;3.67;;;;;;;-0.05;68.34;94254.53;5013713;28;20198;-77
2024/01/15 10:08:03;;;;;;;6.37;4.07;;;;;;;0.04;68.74;94250.50;5029481;28;20205;-77
2024/01/15 10:10:28;;;;;;;14.83;8.40;;;;;;;0.21;68.59;94253.38;5037052;28;20218;-77
2024/01/15 10:12:54;;;;;;;9.37;5.37;;;;;;;-0.13;70.27;94242.34;4996631;28;20190;-77
2024/01/15 10:15:23;;;;;;;10.13;4.37;;;;;;;-0.23;70.04;94246.53;5027037;28;20199;-77
2024/01/15 10:17:48;;;;;;;11.40;7.00;;;;;;;-0.23;70.56;94238.06;5028854;28;20191;-77
2024/01/15 10:20:14;;;;;;;7.20;4.27;;;;;;;-0.11;71.73;94237.13;5015206;28;20230;-77
2024/01/15 10:22:51;;;;;;;6.87;4.43;;;;;;;-0.21;72.53;94233.66;5030054;28;20207;-77
2024/01/15 10:25:22;;;;;;;7.40;3.97;;;;;;;-0.29;73.39;94231.66;4993909;28;20195;-77
2024/01/15 10:27:59;;;;;;;8.63;4.87;;;;;;;-0.04;72.87;94230.66;5011490;28;20204;-78
2024/01/15 10:30:24;;;;;;;7.73;4.57;;;;;;;-0.27;72.87;94229.81;5028159;28;20253;-78
2024/01/15 10:32:58;;;;;;;9.20;4.70;;;;;;;-0.01;72.49;94220.19;5009522;28;20230;-78
2024/01/15 10:35:27;;;;;;;8.37;4.30;;;;;;;0.01;72.92;94220.09;5023240;28;20290;-78
2024/01/15 10:37:52;;;;;;;7.40;3.93;;;;;;;0.14;72.68;94216.47;5011642;28;20191;-80
2024/01/15 10:40:18;;;;;;;6.33;3.93;;;;;;;0.29;72.53;94211.94;5031652;28;20212;-78
2024/01/15 10:42:44;;;;;;;7.23;4.00;;;;;;;0.01;74.67;94208.16;5032381;28;20960;-78
2024/01/15 10:45:09;;;;;;;7.17;4.20;;;;;;;0.04;76.02;94207.09;5014104;28;20190;-78
2024/01/15 10:47:35;;;;;;;6.17;4.33;;;;;;;0.23;76.26;94199.66;5032061;28;20214;-78
2024/01/15 10:50:01;;;;;;;8.90;6.10;;;;;;;0.05;78.00;94201.88;5031171;28;20727;-77
2024/01/15 10:52:28;;;;;;;6.50;4.23;;;;;;;0.11;77.57;94198.84;5014877;28;20201;-78
2024/01/15 10:54:53;;;;;;;11.00;5.87;;;;;;;-0.03;79.00;94205.00;4997875;28;20241;-78
2024/01/15 10:57:21;;;;;;;9.40;4.83;;;;;;;-0.22;79.96;94204.78;5031790;28;20660;-79
2024/01/15 10:59:47;;;;;;;6.40;3.70;;;;;;;-0.26;80.66;94210.25;5031605;28;20214;-79
2024/01/15 11:02:14;;;;;;;10.23;6.07;;;;;;;-0.12;80.33;94203.16;5013867;28;20210;-78
2024/01/15 11:04:39;;;;;;;10.27;6.43;;;;;;;-0.19;79.81;94196.06;5031315;28;20197;-78
2024/01/15 11:07:05;;;;;;;5.83;3.10;;;;;;;-0.41;80.94;94192.59;5032682;28;20217;-78
2024/01/15 11:09:30;;;;;;;6.30;4.30;;;;;;;-0.12;80.14;94189.56;5024503;28;20284;-79
2024/01/15 11:12:13;;;;;;;7.60;4.03;;;;;;;-0.18;80.96;94190.84;4995814;28;20197;-78
2024/01/15 11:14:46;;;;;;;7.63;5.37;;;;;;;-0.18;81.45;94187.47;5035325;28;20656;-78
2024/01/15 11:17:12;;;;;;;7.60;3.77;;;;;;;-0.34;82.07;94175.91;5015428;28;20183;-78
2024/01/15 11:19:41;;;;;;;3.70;3.30;;;;;;;0.00;81.08;94168.25;5012119;28;20208;-78
2024/01/15 11:22:08;;;;;;;4.40;2.93;;;;;;;-0.11;80.77;94181.00;5015059;28;20195;-78